Time;durP1;ratioP1;P1;durP2;ratioP2;P2;SDS_P1;SDS_P2;PMS_P1;PMS_P2;Temp;Humidity;BMP_temperature;BMP_pressure;BME280_temperature;BME280_humidity;BME280_pressure;Samples;Min_cycle;Max_cycle;Signal;HPM_P1;HPM_P2
2022/05/16 00:01:04;;;;;;;13.73;5.38;;;;;;;;;;5025259;28;20445;-57
2022/05/16 00:03:30;;;;;;;8.60;5.03;;;;;;;;;;5026207;28;20052;-58
2022/05/16 00:05:55;;;;;;;8.20;5.22;;;;;;;;;;5027174;28;20700;-58
2022/05/16 00:08:21;;;;;;;8.65;5.20;;;;;;;;;;5026407;28;20037;-58
2022/05/16 00:10:46;;;;;;;10.30;5.80;;;;;;;;;;5023050;28;20024;-58
2022/05/16 00:13:12;;;;;;;9.13;5.55;;;;;;;;;;5024844;28;20029;-58
2022/05/16 00:15:37;;;;;;;11.90;5.78;;;;;;;;;;5027337;28;20041;-58
2022/05/16 00:18:04;;;;;;;10.27;6.15;;;;;;;;;;5033711;28;20724;-58
2022/05/16 00:20:29;;;;;;;10.88;6.40;;;;;;;;;;5023003;28;20025;-58
2022/05/16 00:22:55;;;;;;;9.82;6.68;;;;;;;;;;5028486;28;20052;-58
2022/05/16 00:25:20;;;;;;;9.43;6.32;;;;;;;;;;5021117;28;20501;-58
2022/05/16 00:27:46;;;;;;;11.90;6.95;;;;;;;;;;5023442;28;20704;-58
2022/05/16 00:30:15;;;;;;;13.95;7.82;;;;;;;;;;5030769;28;20112;-57
2022/05/16 00:32:41;;;;;;;13.98;7.07;;;;;;;;;;5023583;28;20029;-58
2022/05/16 00:35:09;;;;;;;10.27;6.28;;;;;;;;;;5028669;28;20033;-58
2022/05/16 00:37:34;;;;;;;9.27;6.18;;;;;;;;;;5025694;28;20096;-58
2022/05/16 00:40:00;;;;;;;10.93;6.40;;;;;;;;;;5031865;28;20041;-57
2022/05/16 00:42:25;;;;;;;9.73;5.53;;;;;;;;;;5016855;28;20131;-58
2022/05/16 00:44:51;;;;;;;10.15;5.75;;;;;;;;;;5026088;28;20041;-57
2022/05/16 00:47:16;;;;;;;7.45;5.25;;;;;;;;;;5029358;28;20065;-58
2022/05/16 00:49:46;;;;;;;6.63;4.40;;;;;;;;;;5027080;28;20032;-58
2022/05/16 00:52:11;;;;;;;9.52;4.28;;;;;;;;;;5028129;28;20086;-58
2022/05/16 00:55:02;;;;;;;6.97;4.10;;;;;;;;;;5026680;28;20443;-57
2022/05/16 00:57:38;;;;;;;5.63;3.58;;;;;;;;;;5020023;28;20037;-57
2022/05/16 01:00:29;;;;;;;8.20;3.83;;;;;;;;;;5015750;28;20085;-57
2022/05/16 01:05:43;;;;;;;5.07;3.13;;;;;;;;;;5007125;28;20029;-58
2022/05/16 01:08:12;;;;;;;8.82;3.47;;;;;;;;;;5011064;28;20034;-57
2022/05/16 01:10:39;;;;;;;9.27;3.50;;;;;;;;;;5010634;28;20026;-57
2022/05/16 01:13:05;;;;;;;6.72;3.92;;;;;;;;;;4997541;28;21101;-58
2022/05/16 01:15:36;;;;;;;10.30;4.10;;;;;;;;;;5006455;28;20040;-58
2022/05/16 01:18:06;;;;;;;6.43;3.72;;;;;;;;;;5011670;28;20072;-58
2022/05/16 01:21:09;;;;;;;10.43;3.17;;;;;;;;;;5014355;28;20137;-58
2022/05/16 01:23:42;;;;;;;3.47;2.13;;;;;;;;;;5008976;28;20029;-58
2022/05/16 01:26:15;;;;;;;7.30;2.40;;;;;;;;;;4998600;28;20022;-58
2022/05/16 01:28:40;;;;;;;7.63;3.53;;;;;;;;;;4996118;28;20555;-58
2022/05/16 01:31:07;;;;;;;6.03;3.50;;;;;;;;;;5013406;28;20037;-58
2022/05/16 01:33:32;;;;;;;5.80;2.72;;;;;;;;;;5002489;28;20316;-58
2022/05/16 01:35:58;;;;;;;3.55;2.15;;;;;;;;;;5015608;28;20397;-58
2022/05/16 01:38:27;;;;;;;5.57;2.70;;;;;;;;;;5005023;28;20103;-58
2022/05/16 01:41:02;;;;;;;7.32;2.47;;;;;;;;;;5001525;28;20056;-58
2022/05/16 01:43:36;;;;;;;6.00;2.83;;;;;;;;;;4996630;28;20029;-58
2022/05/16 01:46:03;;;;;;;3.42;2.35;;;;;;;;;;5007121;28;20044;-58
2022/05/16 01:48:30;;;;;;;3.22;2.72;;;;;;;;;;5011180;28;20615;-57
2022/05/16 01:51:05;;;;;;;8.45;2.53;;;;;;;;;;5010340;28;20554;-58
2022/05/16 01:53:31;;;;;;;7.82;2.75;;;;;;;;;;5008933;28;20761;-58
2022/05/16 01:55:57;;;;;;;4.53;3.28;;;;;;;;;;5006817;28;20037;-58
2022/05/16 01:58:24;;;;;;;4.63;2.50;;;;;;;;;;5000456;28;20182;-57
2022/05/16 02:00:51;;;;;;;5.43;2.42;;;;;;;;;;5010805;28;20022;-57
2022/05/16 02:03:16;;;;;;;8.10;3.20;;;;;;;;;;4997083;28;20204;-58
2022/05/16 02:05:43;;;;;;;7.28;3.10;;;;;;;;;;5012305;28;20401;-58
2022/05/16 02:08:10;;;;;;;5.00;3.15;;;;;;;;;;4996967;28;20028;-58
2022/05/16 02:10:35;;;;;;;11.10;4.18;;;;;;;;;;5003969;28;20037;-58
2022/05/16 02:13:03;;;;;;;6.53;3.40;;;;;;;;;;5002259;28;20084;-59
2022/05/16 02:15:31;;;;;;;10.93;4.38;;;;;;;;;;5007436;28;20026;-57
2022/05/16 02:17:57;;;;;;;7.00;3.88;;;;;;;;;;5014960;28;20501;-58
2022/05/16 02:20:23;;;;;;;14.40;4.57;;;;;;;;;;5011338;28;20050;-58
2022/05/16 02:25:40;;;;;;;13.23;5.38;;;;;;;;;;5012225;28;20760;-58
2022/05/16 02:28:09;;;;;;;11.60;6.05;;;;;;;;;;5003899;28;20613;-58
2022/05/16 02:30:35;;;;;;;13.90;6.45;;;;;;;;;;5004110;28;20123;-58
2022/05/16 02:33:02;;;;;;;19.63;6.20;;;;;;;;;;5002762;28;20194;-58
2022/05/16 02:35:29;;;;;;;27.92;7.55;;;;;;;;;;5011437;28;20041;-58
2022/05/16 02:37:58;;;;;;;17.25;6.88;;;;;;;;;;4999027;28;20057;-58
2022/05/16 02:40:25;;;;;;;28.17;8.52;;;;;;;;;;5004225;28;20156;-58
2022/05/16 02:42:50;;;;;;;25.83;8.60;;;;;;;;;;4998943;28;20543;-58
2022/05/16 02:45:16;;;;;;;29.25;8.63;;;;;;;;;;4997934;28;20066;-58
2022/05/16 02:47:41;;;;;;;20.52;8.82;;;;;;;;;;5013395;28;20111;-58
2022/05/16 02:50:07;;;;;;;20.23;8.80;;;;;;;;;;5007351;28;20041;-58
2022/05/16 02:52:33;;;;;;;21.30;9.57;;;;;;;;;;5006936;28;20038;-58
2022/05/16 02:55:01;;;;;;;22.63;8.68;;;;;;;;;;5000620;28;20265;-58
2022/05/16 02:57:30;;;;;;;21.40;8.70;;;;;;;;;;5002590;28;20478;-58
2022/05/16 02:59:57;;;;;;;24.73;9.82;;;;;;;;;;5003293;28;20108;-58
2022/05/16 03:02:26;;;;;;;23.08;8.75;;;;;;;;;;5005473;28;20069;-58
2022/05/16 03:04:52;;;;;;;22.35;9.73;;;;;;;;;;5012741;28;20090;-58
2022/05/16 03:07:18;;;;;;;19.67;9.73;;;;;;;;;;4997216;28;20117;-58
2022/05/16 03:09:43;;;;;;;21.83;9.75;;;;;;;;;;5006380;28;20121;-58
2022/05/16 03:12:10;;;;;;;19.08;9.77;;;;;;;;;;4997633;28;20033;-58
2022/05/16 03:14:36;;;;;;;24.95;10.40;;;;;;;;;;5006458;28;20033;-58
2022/05/16 03:17:05;;;;;;;24.92;10.85;;;;;;;;;;5010894;28;20034;-58
2022/05/16 03:19:30;;;;;;;21.33;9.70;;;;;;;;;;5003875;28;20049;-58
2022/05/16 03:21:56;;;;;;;23.10;10.00;;;;;;;;;;5004537;28;20030;-58
2022/05/16 03:24:22;;;;;;;18.27;9.43;;;;;;;;;;5004841;28;20030;-58
2022/05/16 03:26:47;;;;;;;25.45;9.35;;;;;;;;;;5015978;28;20506;-58
2022/05/16 03:29:14;;;;;;;29.15;10.20;;;;;;;;;;5001700;28;20030;-58
2022/05/16 03:31:41;;;;;;;29.17;9.35;;;;;;;;;;4997241;28;20049;-58
2022/05/16 03:34:09;;;;;;;22.77;10.07;;;;;;;;;;5010476;28;20120;-58
2022/05/16 03:36:35;;;;;;;25.92;10.70;;;;;;;;;;4997119;28;20739;-58
2022/05/16 03:41:45;;;;;;;35.47;10.63;;;;;;;;;;5009420;28;20771;-58
2022/05/16 03:44:10;;;;;;;24.35;11.20;;;;;;;;;;5001088;28;20027;-58
2022/05/16 03:46:36;;;;;;;27.52;11.60;;;;;;;;;;5005520;28;20115;-58
2022/05/16 03:49:03;;;;;;;28.45;12.25;;;;;;;;;;5004243;28;20065;-58
2022/05/16 03:51:29;;;;;;;35.22;12.30;;;;;;;;;;5001950;28;20092;-58
2022/05/16 03:53:55;;;;;;;38.90;12.93;;;;;;;;;;5008206;28;20033;-58
2022/05/16 03:56:23;;;;;;;27.73;12.00;;;;;;;;;;5008413;28;20053;-58
2022/05/16 03:58:49;;;;;;;27.80;11.75;;;;;;;;;;5016445;28;20033;-58
2022/05/16 04:01:14;;;;;;;27.83;11.50;;;;;;;;;;5004716;28;20690;-58
2022/05/16 04:03:41;;;;;;;27.65;11.55;;;;;;;;;;5004769;28;20037;-58
2022/05/16 04:06:06;;;;;;;28.95;12.27;;;;;;;;;;5004333;28;20036;-57
2022/05/16 04:08:32;;;;;;;29.17;11.45;;;;;;;;;;5017442;28;20026;-58
2022/05/16 04:10:59;;;;;;;35.90;12.52;;;;;;;;;;5007206;28;20041;-58
2022/05/16 04:13:26;;;;;;;31.15;12.45;;;;;;;;;;5002243;28;20144;-58
2022/05/16 04:15:52;;;;;;;39.38;12.52;;;;;;;;;;5013322;28;20155;-58
2022/05/16 04:18:18;;;;;;;37.65;12.77;;;;;;;;;;5005619;28;20067;-58
2022/05/16 04:20:43;;;;;;;39.20;11.95;;;;;;;;;;5006793;28;20106;-58
2022/05/16 04:23:09;;;;;;;36.15;12.07;;;;;;;;;;5003603;28;20412;-58
2022/05/16 04:25:37;;;;;;;35.90;11.63;;;;;;;;;;5011670;28;20029;-58
2022/05/16 04:28:08;;;;;;;40.33;11.98;;;;;;;;;;5001160;28;20056;-58
2022/05/16 04:30:34;;;;;;;35.83;11.98;;;;;;;;;;5005978;28;20461;-58
2022/05/16 04:33:00;;;;;;;30.70;10.68;;;;;;;;;;5007964;28;20029;-58
2022/05/16 04:35:26;;;;;;;33.33;11.90;;;;;;;;;;5013409;28;20056;-58
2022/05/16 04:37:52;;;;;;;35.75;11.27;;;;;;;;;;5017772;28;20053;-57
2022/05/16 04:40:18;;;;;;;40.63;11.80;;;;;;;;;;4999242;28;20022;-57
2022/05/16 04:42:44;;;;;;;43.13;11.43;;;;;;;;;;4987696;28;20033;-58
2022/05/16 04:45:22;;;;;;;31.58;11.18;;;;;;;;;;5007208;28;20032;-58
2022/05/16 04:47:50;;;;;;;37.78;11.82;;;;;;;;;;5004131;28;20054;-58
2022/05/16 04:50:21;;;;;;;41.67;11.00;;;;;;;;;;5005457;28;20635;-57
2022/05/16 04:52:47;;;;;;;40.00;12.90;;;;;;;;;;5007107;28;20037;-58
2022/05/16 04:55:14;;;;;;;46.05;11.90;;;;;;;;;;5008618;28;20191;-58
2022/05/16 04:57:40;;;;;;;43.83;11.60;;;;;;;;;;4999062;28;20080;-58
2022/05/16 05:00:08;;;;;;;40.05;11.85;;;;;;;;;;5009250;28;20038;-58
2022/05/16 05:02:37;;;;;;;35.15;10.95;;;;;;;;;;5010371;28;20076;-58
2022/05/16 05:05:03;;;;;;;28.60;10.13;;;;;;;;;;5001023;28;20569;-58
2022/05/16 05:07:29;;;;;;;33.55;10.27;;;;;;;;;;5002178;28;20041;-58
2022/05/16 05:15:22;;;;;;;41.80;12.65;;;;;;;;;;5008633;28;20546;-58
2022/05/16 05:17:48;;;;;;;40.33;11.63;;;;;;;;;;5012989;28;20038;-58
2022/05/16 05:20:15;;;;;;;46.28;13.68;;;;;;;;;;4997208;28;20040;-58
2022/05/16 05:22:43;;;;;;;37.38;11.60;;;;;;;;;;5019615;28;20044;-58
2022/05/16 05:25:11;;;;;;;48.78;13.00;;;;;;;;;;5003649;28;20107;-58
2022/05/16 05:27:39;;;;;;;39.70;12.45;;;;;;;;;;5003340;28;20038;-58
2022/05/16 05:30:06;;;;;;;40.83;13.85;;;;;;;;;;5012828;28;20450;-58
2022/05/16 05:32:32;;;;;;;36.50;12.07;;;;;;;;;;5011089;28;20029;-58
2022/05/16 05:34:57;;;;;;;30.42;12.18;;;;;;;;;;4999535;28;20356;-59
2022/05/16 05:37:23;;;;;;;36.67;12.77;;;;;;;;;;5007728;28;20613;-58
2022/05/16 05:39:48;;;;;;;34.65;12.18;;;;;;;;;;5015709;28;20041;-58
2022/05/16 05:42:14;;;;;;;33.50;12.98;;;;;;;;;;4989568;28;20040;-58
2022/05/16 05:44:39;;;;;;;38.03;11.52;;;;;;;;;;4994386;28;20548;-58
2022/05/16 05:47:05;;;;;;;46.78;13.07;;;;;;;;;;5004032;28;20034;-58
2022/05/16 05:49:31;;;;;;;38.33;14.10;;;;;;;;;;5000702;28;20033;-59
2022/05/16 05:51:57;;;;;;;45.78;12.43;;;;;;;;;;4996438;28;20065;-59
2022/05/16 05:54:22;;;;;;;32.05;12.70;;;;;;;;;;5016209;28;20091;-58
2022/05/16 05:56:48;;;;;;;34.65;13.82;;;;;;;;;;5018625;28;20037;-58
2022/05/16 05:59:13;;;;;;;34.33;12.13;;;;;;;;;;5009453;28;20029;-58
2022/05/16 06:01:39;;;;;;;37.47;12.80;;;;;;;;;;4989184;28;20124;-58
2022/05/16 06:04:04;;;;;;;32.28;11.57;;;;;;;;;;4993642;28;20045;-58
2022/05/16 06:06:30;;;;;;;28.25;11.13;;;;;;;;;;5004035;28;20045;-58
2022/05/16 06:08:55;;;;;;;29.13;12.77;;;;;;;;;;5005152;28;20034;-57
2022/05/16 06:11:27;;;;;;;27.15;10.75;;;;;;;;;;5019045;28;20124;-58
2022/05/16 06:13:53;;;;;;;23.27;10.70;;;;;;;;;;4998596;28;20041;-58
2022/05/16 06:16:18;;;;;;;27.13;11.00;;;;;;;;;;5004117;28;20034;-58
2022/05/16 06:18:43;;;;;;;33.05;11.20;;;;;;;;;;5004519;28;20042;-58
2022/05/16 06:21:09;;;;;;;26.17;11.15;;;;;;;;;;5002669;28;20037;-58
2022/05/16 06:23:34;;;;;;;26.40;10.50;;;;;;;;;;5004060;28;20037;-58
2022/05/16 06:26:00;;;;;;;27.80;10.77;;;;;;;;;;4988801;28;20401;-58
2022/05/16 06:28:28;;;;;;;23.73;10.88;;;;;;;;;;5000641;28;20034;-58
2022/05/16 06:30:56;;;;;;;22.98;8.75;;;;;;;;;;4999309;28;20031;-58
2022/05/16 06:33:25;;;;;;;21.55;9.38;;;;;;;;;;4997484;28;20128;-58
2022/05/16 06:35:51;;;;;;;19.08;8.95;;;;;;;;;;4995660;28;20131;-58
2022/05/16 06:38:23;;;;;;;18.25;7.78;;;;;;;;;;4992420;28;20444;-58
2022/05/16 06:40:49;;;;;;;23.48;7.78;;;;;;;;;;4997730;28;20044;-58
2022/05/16 06:43:18;;;;;;;15.98;7.30;;;;;;;;;;5000343;28;20554;-58
2022/05/16 06:45:44;;;;;;;15.52;8.35;;;;;;;;;;5004892;28;20030;-58
2022/05/16 06:48:10;;;;;;;19.75;6.95;;;;;;;;;;4991355;28;20092;-58
2022/05/16 06:50:38;;;;;;;17.00;6.35;;;;;;;;;;5009836;28;20076;-58
2022/05/16 06:53:06;;;;;;;16.08;6.68;;;;;;;;;;4995400;28;20069;-58
2022/05/16 06:55:32;;;;;;;12.88;7.15;;;;;;;;;;4996252;28;20049;-58
2022/05/16 06:57:57;;;;;;;22.13;10.10;;;;;;;;;;5002572;28;20028;-57
2022/05/16 07:00:24;;;;;;;22.17;9.75;;;;;;;;;;4997453;28;20235;-57
2022/05/16 07:02:50;;;;;;;21.92;9.68;;;;;;;;;;4995478;28;20037;-58
2022/05/16 07:05:15;;;;;;;29.23;9.45;;;;;;;;;;4995735;28;20031;-58
2022/05/16 07:07:41;;;;;;;31.30;11.18;;;;;;;;;;4989759;28;20110;-58
2022/05/16 07:10:13;;;;;;;25.77;10.23;;;;;;;;;;4995766;28;20052;-58
2022/05/16 07:12:39;;;;;;;25.95;11.05;;;;;;;;;;4998197;28;20099;-59
2022/05/16 07:15:05;;;;;;;26.80;12.20;;;;;;;;;;4993638;28;20034;-57
2022/05/16 07:17:31;;;;;;;30.77;12.65;;;;;;;;;;5005242;28;20040;-57
2022/05/16 07:19:57;;;;;;;28.77;13.02;;;;;;;;;;4998791;28;20013;-58
2022/05/16 07:22:23;;;;;;;31.17;13.80;;;;;;;;;;5005162;28;20042;-58
2022/05/16 07:24:51;;;;;;;30.50;12.57;;;;;;;;;;5004591;28;20303;-56
2022/05/16 07:30:01;;;;;;;38.60;13.27;;;;;;;;;;5005885;28;20033;-61
2022/05/16 07:32:41;;;;;;;33.58;13.57;;;;;;;;;;4999167;28;20030;-56
2022/05/16 07:35:09;;;;;;;46.17;14.57;;;;;;;;;;5011807;28;20199;-56
2022/05/16 07:37:34;;;;;;;51.13;15.43;;;;;;;;;;5021637;28;20052;-55
2022/05/16 07:40:00;;;;;;;36.80;14.93;;;;;;;;;;5007298;28;20173;-57
2022/05/16 07:42:25;;;;;;;38.30;14.70;;;;;;;;;;5017314;28;20504;-56
2022/05/16 07:44:51;;;;;;;45.38;14.10;;;;;;;;;;5009809;28;20045;-56
2022/05/16 07:47:17;;;;;;;34.70;13.10;;;;;;;;;;5010304;28;20532;-56
2022/05/16 07:49:42;;;;;;;52.28;14.75;;;;;;;;;;5013185;28;20037;-55
2022/05/16 07:52:09;;;;;;;45.40;13.90;;;;;;;;;;5017584;28;20061;-56
2022/05/16 07:54:34;;;;;;;44.15;14.88;;;;;;;;;;5007700;28;20112;-56
2022/05/16 07:57:02;;;;;;;40.15;14.32;;;;;;;;;;4997845;28;20508;-56
2022/05/16 07:59:28;;;;;;;42.55;15.13;;;;;;;;;;4989107;28;20029;-56
2022/05/16 08:01:54;;;;;;;52.15;14.93;;;;;;;;;;4997662;28;20525;-55
2022/05/16 08:04:19;;;;;;;48.05;14.10;;;;;;;;;;5006374;28;20038;-55
2022/05/16 08:06:45;;;;;;;48.00;13.13;;;;;;;;;;4991629;28;20195;-54
2022/05/16 08:11:54;;;;;;;31.02;11.75;;;;;;;;;;5008826;28;20683;-55
2022/05/16 08:14:20;;;;;;;41.05;12.25;;;;;;;;;;5014184;28;20117;-54
2022/05/16 08:16:45;;;;;;;47.88;14.30;;;;;;;;;;5006672;28;20475;-53
2022/05/16 08:19:11;;;;;;;29.83;14.00;;;;;;;;;;4997526;28;20284;-52
2022/05/16 08:21:37;;;;;;;32.60;13.40;;;;;;;;;;5007161;28;20034;-54
2022/05/16 08:24:07;;;;;;;34.17;12.95;;;;;;;;;;5010871;28;20555;-54
2022/05/16 08:26:33;;;;;;;39.85;13.43;;;;;;;;;;5003320;28;20475;-54
2022/05/16 08:28:59;;;;;;;35.17;12.80;;;;;;;;;;5004838;28;20026;-54
2022/05/16 08:31:28;;;;;;;41.17;13.18;;;;;;;;;;5019731;28;20026;-54
2022/05/16 08:33:54;;;;;;;32.63;12.23;;;;;;;;;;5023046;28;20040;-54
2022/05/16 08:41:53;;;;;;;28.77;9.00;;;;;;;;;;5006983;28;20029;-55
2022/05/16 08:44:35;;;;;;;19.77;8.10;;;;;;;;;;5018326;28;20022;-54
2022/05/16 08:47:19;;;;;;;37.70;13.35;;;;;;;;;;5016946;28;20021;-55
2022/05/16 08:49:52;;;;;;;25.45;7.72;;;;;;;;;;5011359;28;20447;-56
2022/05/16 08:52:26;;;;;;;34.17;8.20;;;;;;;;;;5011760;28;20021;-55
2022/05/16 08:55:04;;;;;;;21.83;8.23;;;;;;;;;;5019473;28;20028;-54
2022/05/16 08:57:36;;;;;;;19.58;8.13;;;;;;;;;;5013796;28;20709;-56
2022/05/16 09:00:11;;;;;;;21.33;6.17;;;;;;;;;;4993943;28;20128;-56
2022/05/16 09:02:42;;;;;;;27.63;7.38;;;;;;;;;;4993831;28;20730;-56
2022/05/16 09:05:15;;;;;;;25.08;7.05;;;;;;;;;;5000687;28;20045;-56
2022/05/16 09:07:54;;;;;;;17.60;6.57;;;;;;;;;;5008747;28;20459;-57
2022/05/16 09:10:24;;;;;;;12.75;5.93;;;;;;;;;;5001959;28;20100;-55
2022/05/16 09:13:14;;;;;;;15.00;5.38;;;;;;;;;;5014863;28;20060;-56
2022/05/16 09:16:17;;;;;;;12.80;4.05;;;;;;;;;;5008812;28;20030;-56
2022/05/16 09:18:51;;;;;;;9.05;3.03;;;;;;;;;;5018565;28;20222;-56
2022/05/16 09:21:41;;;;;;;14.10;3.30;;;;;;;;;;5009290;28;20040;-56
2022/05/16 09:24:15;;;;;;;10.30;3.30;;;;;;;;;;4995918;28;20026;-56
2022/05/16 09:26:47;;;;;;;6.38;2.97;;;;;;;;;;5013390;28;20026;-56
2022/05/16 09:29:22;;;;;;;;;;;;;;;;;;5010170;28;20623;-57
2022/05/16 09:31:49;;;;;;;8.40;3.75;;;;;;;;;;4993651;28;19913;-56
2022/05/16 09:34:15;;;;;;;9.35;3.28;;;;;;;;;;5004637;28;20132;-56
2022/05/16 09:36:45;;;;;;;8.15;3.13;;;;;;;;;;5005435;28;20530;-56
2022/05/16 09:39:12;;;;;;;8.43;3.00;;;;;;;;;;5008847;28;20037;-56
2022/05/16 09:41:55;;;;;;;12.75;2.88;;;;;;;;;;5008291;28;20025;-56
2022/05/16 09:44:21;;;;;;;12.55;2.55;;;;;;;;;;5010423;28;20033;-55
2022/05/16 09:46:47;;;;;;;12.57;2.85;;;;;;;;;;5005980;28;20032;-57
2022/05/16 09:49:20;;;;;;;21.83;3.20;;;;;;;;;;5008966;28;20059;-57
2022/05/16 09:51:51;;;;;;;14.68;2.80;;;;;;;;;;4993492;28;20041;-57
2022/05/16 09:54:33;;;;;;;13.90;2.83;;;;;;;;;;4994341;28;20028;-56
2022/05/16 09:57:04;;;;;;;22.63;2.53;;;;;;;;;;5002775;28;20602;-57
2022/05/16 09:59:35;;;;;;;16.70;3.42;;;;;;;;;;5012617;28;20309;-57
2022/05/16 10:02:15;;;;;;;14.27;2.58;;;;;;;;;;4999526;28;20030;-57
2022/05/16 10:04:44;;;;;;;13.98;2.85;;;;;;;;;;4994829;28;20034;-57
2022/05/16 10:07:11;;;;;;;15.18;2.70;;;;;;;;;;4999177;28;20041;-57
2022/05/16 10:09:48;;;;;;;9.20;2.67;;;;;;;;;;5012312;28;20049;-57
2022/05/16 10:12:18;;;;;;;15.23;1.92;;;;;;;;;;5003137;28;20064;-57
2022/05/16 10:14:46;;;;;;;11.60;2.25;;;;;;;;;;4990635;28;20577;-57
2022/05/16 10:17:20;;;;;;;9.07;3.20;;;;;;;;;;5003333;28;20037;-57
2022/05/16 10:19:58;;;;;;;11.65;2.13;;;;;;;;;;5004764;28;20022;-57
2022/05/16 10:22:25;;;;;;;11.30;2.28;;;;;;;;;;5013439;28;20522;-57
2022/05/16 10:24:54;;;;;;;10.18;2.03;;;;;;;;;;5009055;28;20428;-57
2022/05/16 10:27:33;;;;;;;12.88;2.63;;;;;;;;;;5009949;28;20525;-57
2022/05/16 10:30:12;;;;;;;18.88;2.10;;;;;;;;;;4996306;28;20064;-57
2022/05/16 10:35:30;;;;;;;14.48;3.28;;;;;;;;;;5005968;28;20120;-57
2022/05/16 10:37:58;;;;;;;18.67;2.78;;;;;;;;;;5010161;28;20052;-57
2022/05/16 10:40:33;;;;;;;24.83;2.45;;;;;;;;;;5019953;28;20092;-57
2022/05/16 10:43:19;;;;;;;22.08;2.03;;;;;;;;;;5002841;28;20049;-57
2022/05/16 10:45:51;;;;;;;24.02;2.65;;;;;;;;;;5012502;28;20081;-56
2022/05/16 10:48:27;;;;;;;17.02;2.88;;;;;;;;;;5009739;28;20329;-57
2022/05/16 10:51:00;;;;;;;20.45;2.45;;;;;;;;;;5017753;28;20087;-56
2022/05/16 10:53:34;;;;;;;12.00;2.28;;;;;;;;;;5018085;28;20408;-57
2022/05/16 10:56:37;;;;;;;32.05;3.53;;;;;;;;;;5015001;28;20064;-57
2022/05/16 10:59:21;;;;;;;19.25;2.78;;;;;;;;;;5015659;28;20447;-56
2022/05/16 11:01:54;;;;;;;13.00;2.83;;;;;;;;;;5004836;28;20038;-57
2022/05/16 11:04:29;;;;;;;17.23;2.97;;;;;;;;;;5002054;28;20022;-57
2022/05/16 11:07:29;;;;;;;19.33;2.95;;;;;;;;;;5010384;28;20039;-56
2022/05/16 11:10:10;;;;;;;21.33;3.58;;;;;;;;;;5003621;28;20022;-56
2022/05/16 11:12:44;;;;;;;20.55;3.17;;;;;;;;;;5017194;28;20034;-56
2022/05/16 11:15:26;;;;;;;28.80;4.88;;;;;;;;;;4999226;28;20027;-57
2022/05/16 11:18:30;;;;;;;15.20;2.38;;;;;;;;;;5001685;28;20080;-57
2022/05/16 11:21:14;;;;;;;18.98;2.97;;;;;;;;;;4994337;28;20057;-57
2022/05/16 11:24:01;;;;;;;18.08;2.45;;;;;;;;;;5010994;28;20021;-56
2022/05/16 11:26:49;;;;;;;21.25;2.88;;;;;;;;;;5007711;28;20044;-56
2022/05/16 11:29:27;;;;;;;19.13;2.40;;;;;;;;;;5004287;28;20055;-56
2022/05/16 11:32:22;;;;;;;24.85;2.60;;;;;;;;;;5014076;28;20025;-56
2022/05/16 11:34:53;;;;;;;39.65;6.25;;;;;;;;;;5005671;28;20050;-56
2022/05/16 11:38:04;;;;;;;17.58;2.22;;;;;;;;;;5013346;28;20042;-57
2022/05/16 11:40:58;;;;;;;21.52;2.30;;;;;;;;;;5009662;28;20068;-56
2022/05/16 11:43:27;;;;;;;20.30;3.78;;;;;;;;;;5020513;28;20045;-58
2022/05/16 11:46:14;;;;;;;21.60;2.40;;;;;;;;;;5005651;28;20524;-58
2022/05/16 11:48:49;;;;;;;10.00;1.80;;;;;;;;;;4999855;28;20060;-58
2022/05/16 11:51:43;;;;;;;14.95;2.15;;;;;;;;;;5000236;28;20030;-57
2022/05/16 11:54:13;;;;;;;20.52;2.42;;;;;;;;;;5006454;28;20547;-57
2022/05/16 12:02:38;;;;;;;38.88;4.95;;;;;;;;;;4996714;28;20037;-57
2022/05/16 12:05:21;;;;;;;43.45;6.82;;;;;;;;;;5003524;28;20041;-57
2022/05/16 12:07:56;;;;;;;14.95;3.25;;;;;;;;;;5007825;28;20054;-57
2022/05/16 12:10:26;;;;;;;32.15;5.63;;;;;;;;;;5010399;28;20029;-57
2022/05/16 12:13:13;;;;;;;28.58;6.10;;;;;;;;;;5015762;28;20079;-58
2022/05/16 12:15:38;;;;;;;33.95;4.47;;;;;;;;;;5016764;28;20021;-60
2022/05/16 12:18:33;;;;;;;19.20;3.95;;;;;;;;;;5006101;28;20070;-57
2022/05/16 12:21:00;;;;;;;26.48;4.68;;;;;;;;;;5005722;28;20234;-57
2022/05/16 12:23:44;;;;;;;61.97;6.65;;;;;;;;;;5007511;28;20021;-57
2022/05/16 12:26:11;;;;;;;24.40;5.35;;;;;;;;;;5018045;28;20014;-57
2022/05/16 12:28:37;;;;;;;30.45;5.07;;;;;;;;;;5020428;28;20393;-58
2022/05/16 12:31:05;;;;;;;34.95;7.35;;;;;;;;;;5010354;28;20049;-57
2022/05/16 12:33:41;;;;;;;37.55;6.53;;;;;;;;;;5009886;23;20064;-83
2022/05/16 12:36:23;;;;;;;26.58;4.05;;;;;;;;;;5004609;28;20204;-83
2022/05/16 12:39:24;;;;;;;29.40;4.55;;;;;;;;;;5002370;28;20514;-83
2022/05/16 12:42:16;;;;;;;48.38;5.60;;;;;;;;;;5000763;28;20029;-82
2022/05/16 12:44:57;;;;;;;87.60;7.03;;;;;;;;;;5018622;28;20033;-84
2022/05/16 12:47:48;;;;;;;34.57;5.20;;;;;;;;;;5007562;28;20084;-83
2022/05/16 12:50:22;;;;;;;31.13;4.97;;;;;;;;;;5004297;28;20274;-84
2022/05/16 12:53:16;;;;;;;25.38;3.92;;;;;;;;;;5008048;28;22110;-84
2022/05/16 12:56:01;;;;;;;18.05;3.20;;;;;;;;;;5004355;28;20450;-84
2022/05/16 12:58:58;;;;;;;16.83;2.60;;;;;;;;;;5018200;28;20037;-84
2022/05/16 13:01:43;;;;;;;16.48;2.50;;;;;;;;;;5005306;28;20030;-83
2022/05/16 13:04:58;;;;;;;12.98;2.35;;;;;;;;;;5009802;28;20030;-82
2022/05/16 13:07:39;;;;;;;18.23;3.22;;;;;;;;;;5012725;28;20478;-83
2022/05/16 13:10:23;;;;;;;13.65;2.08;;;;;;;;;;5002163;28;20120;-83
2022/05/16 13:13:25;;;;;;;10.45;2.00;;;;;;;;;;4998121;28;20137;-83
2022/05/16 13:16:09;;;;;;;12.23;1.87;;;;;;;;;;4902472;29;20028;-82
2022/05/16 13:18:44;;;;;;;8.68;1.63;;;;;;;;;;4999079;28;20053;-83
2022/05/16 13:21:13;;;;;;;16.95;2.15;;;;;;;;;;5008806;28;20059;-85
2022/05/16 13:23:39;;;;;;;22.45;2.80;;;;;;;;;;5003264;28;20112;-83
2022/05/16 13:31:42;;;;;;;20.05;3.00;;;;;;;;;;4989251;28;20041;-88
2022/05/16 13:34:10;;;;;;;19.10;4.07;;;;;;;;;;5004545;28;20046;-83
2022/05/16 13:36:38;;;;;;;25.98;2.97;;;;;;;;;;5004299;28;20710;-83
2022/05/16 13:39:11;;;;;;;31.48;3.78;;;;;;;;;;5005080;28;20030;-83
2022/05/16 13:41:38;;;;;;;25.50;3.42;;;;;;;;;;5028829;28;20097;-84
2022/05/16 13:44:04;;;;;;;26.08;2.55;;;;;;;;;;5001056;28;20037;-84
2022/05/16 13:46:33;;;;;;;25.77;3.80;;;;;;;;;;4989297;28;20053;-84
2022/05/16 13:49:05;;;;;;;20.80;3.20;;;;;;;;;;5002308;28;20518;-82
2022/05/16 13:51:33;;;;;;;21.33;3.35;;;;;;;;;;5001223;28;20021;-83
2022/05/16 13:54:04;;;;;;;27.20;3.95;;;;;;;;;;5005190;28;20022;-82
2022/05/16 13:56:48;;;;;;;23.45;3.05;;;;;;;;;;4999994;28;20040;-82
2022/05/16 13:59:19;;;;;;;19.75;3.03;;;;;;;;;;5006338;28;20026;-83
2022/05/16 14:01:50;;;;;;;26.23;3.35;;;;;;;;;;5004532;28;20056;-83
2022/05/16 14:04:20;;;;;;;23.50;3.42;;;;;;;;;;5001837;28;20029;-83
2022/05/16 14:06:50;;;;;;;26.25;3.17;;;;;;;;;;5001905;28;20047;-88
2022/05/16 14:09:26;;;;;;;24.80;2.42;;;;;;;;;;5002669;28;20034;-82
2022/05/16 14:11:54;;;;;;;20.08;2.97;;;;;;;;;;5018477;28;20097;-82
2022/05/16 14:14:23;;;;;;;26.40;3.17;;;;;;;;;;4996971;28;20065;-82
2022/05/16 14:16:52;;;;;;;21.17;2.80;;;;;;;;;;4998904;28;20074;-83
2022/05/16 14:19:45;;;;;;;18.17;2.58;;;;;;;;;;5007365;28;20056;-83
2022/05/16 14:22:28;;;;;;;17.20;3.25;;;;;;;;;;5000776;28;20136;-84
2022/05/16 14:25:02;;;;;;;24.52;4.00;;;;;;;;;;5021004;28;20725;-84
2022/05/16 14:27:45;;;;;;;29.33;4.78;;;;;;;;;;5005769;28;20504;-82
2022/05/16 14:30:18;;;;;;;31.77;4.30;;;;;;;;;;5000885;28;20548;-83
2022/05/16 14:32:47;;;;;;;24.77;3.53;;;;;;;;;;5003022;28;20073;-82
2022/05/16 14:35:21;;;;;;;37.70;4.55;;;;;;;;;;5007693;28;20319;-82
2022/05/16 14:37:50;;;;;;;20.63;3.00;;;;;;;;;;5015029;28;20524;-86
2022/05/16 14:40:17;;;;;;;35.30;3.53;;;;;;;;;;4998102;28;20124;-83
2022/05/16 14:42:45;;;;;;;24.98;3.45;;;;;;;;;;5002136;28;20036;-83
2022/05/16 14:45:16;;;;;;;30.95;4.35;;;;;;;;;;4999058;28;20120;-83
2022/05/16 14:47:48;;;;;;;;;;;;;;;;;;4999552;28;20128;-83
2022/05/16 14:50:19;;;;;;;17.27;2.75;;;;;;;;;;5005783;28;20051;-82
2022/05/16 14:55:06;;;;;;;31.40;3.17;;;;;;;;;;5040751;27;20481;-57
